createdAt,value
2018-11-25T00:00:20.506Z,986.38
2018-11-25T00:01:20.496Z,986.46
2018-11-25T00:02:20.543Z,986.39
2018-11-25T00:03:20.474Z,986.35
2018-11-25T00:04:20.467Z,986.35
2018-11-25T00:05:20.457Z,986.32
2018-11-25T00:06:20.442Z,986.35
2018-11-25T00:07:20.432Z,986.28
2018-11-25T00:08:20.457Z,986.30
2018-11-25T00:09:20.417Z,986.33
2018-11-25T00:10:20.408Z,986.30
2018-11-25T00:11:20.391Z,986.31
2018-11-25T00:12:20.379Z,986.29
2018-11-25T00:13:20.384Z,986.36
2018-11-25T00:14:20.373Z,986.32
2018-11-25T00:15:20.349Z,986.31
2018-11-25T00:16:20.338Z,986.32
2018-11-25T00:17:20.330Z,986.29
2018-11-25T00:18:20.331Z,986.28
2018-11-25T00:19:20.307Z,986.30
2018-11-25T00:20:20.307Z,986.29
2018-11-25T00:21:20.287Z,986.30
2018-11-25T00:22:20.277Z,986.25
2018-11-25T00:23:20.278Z,986.30
2018-11-25T00:24:20.253Z,986.25
2018-11-25T00:25:20.243Z,986.27
2018-11-25T00:26:20.243Z,986.26
2018-11-25T00:27:20.222Z,986.28
2018-11-25T00:28:20.225Z,986.28
2018-11-25T00:29:20.202Z,986.32
2018-11-25T00:30:20.198Z,986.26
2018-11-25T00:31:20.180Z,986.34
2018-11-25T00:32:20.176Z,986.30
2018-11-25T00:33:20.172Z,986.30
2018-11-25T00:34:20.147Z,986.26
2018-11-25T00:35:20.142Z,986.29
2018-11-25T00:36:20.129Z,986.36
2018-11-25T00:37:20.117Z,986.36
2018-11-25T00:38:20.136Z,986.39
2018-11-25T00:39:20.096Z,986.41
2018-11-25T00:40:20.087Z,986.39
2018-11-25T00:41:20.074Z,986.40
2018-11-25T00:42:20.064Z,986.38
2018-11-25T00:43:20.070Z,986.38
2018-11-25T00:44:20.056Z,986.43
2018-11-25T00:45:20.034Z,986.38
2018-11-25T00:46:20.025Z,986.37
2018-11-25T00:47:20.011Z,986.46
2018-11-25T00:48:20.014Z,986.40
2018-11-25T00:49:19.990Z,986.38
2018-11-25T00:50:20.011Z,986.37
2018-11-25T00:51:19.969Z,986.40
2018-11-25T00:52:19.960Z,986.37
2018-11-25T00:53:19.965Z,986.41
2018-11-25T00:54:19.938Z,986.43
2018-11-25T00:55:19.926Z,986.42
2018-11-25T00:56:19.929Z,986.42
2018-11-25T00:57:19.906Z,986.45
2018-11-25T00:58:19.911Z,986.41
2018-11-25T00:59:19.888Z,986.38
2018-11-25T01:00:19.876Z,986.42
2018-11-25T01:01:19.863Z,986.38
2018-11-25T01:02:19.866Z,986.37
2018-11-25T01:03:19.855Z,986.40
2018-11-25T01:04:19.832Z,986.43
2018-11-25T01:05:19.822Z,986.38
2018-11-25T01:06:19.811Z,986.39
2018-11-25T01:07:19.800Z,986.38
2018-11-25T01:08:19.822Z,986.41
2018-11-25T01:09:19.781Z,986.39
2018-11-25T01:10:19.773Z,986.39
2018-11-25T01:11:19.759Z,986.37
2018-11-25T01:12:19.746Z,986.37
2018-11-25T01:13:19.749Z,986.33
2018-11-25T01:14:19.732Z,986.28
2018-11-25T01:15:19.716Z,986.35
2018-11-25T01:16:19.709Z,986.33
2018-11-25T01:17:19.697Z,986.34
2018-11-25T01:18:19.698Z,986.35
2018-11-25T01:19:19.677Z,986.38
2018-11-25T01:20:19.678Z,986.35
2018-11-25T01:21:19.653Z,986.29
2018-11-25T01:22:19.642Z,986.29
2018-11-25T01:23:19.646Z,986.30
2018-11-25T01:24:19.621Z,986.35
2018-11-25T01:25:19.611Z,986.32
2018-11-25T01:26:19.616Z,986.30
2018-11-25T01:27:19.590Z,986.25
2018-11-25T01:28:19.592Z,986.26
2018-11-25T01:29:19.568Z,986.25
2018-11-25T01:30:19.559Z,986.24
2018-11-25T01:31:19.549Z,986.28
2018-11-25T01:32:19.556Z,986.26
2018-11-25T01:33:19.540Z,986.24
2018-11-25T01:34:19.518Z,986.19
2018-11-25T01:35:19.510Z,986.17
2018-11-25T01:36:19.499Z,986.16
2018-11-25T01:37:19.487Z,986.15
2018-11-25T01:38:19.500Z,986.13
2018-11-25T01:39:19.468Z,986.09
2018-11-25T01:40:19.459Z,986.10
2018-11-25T01:41:19.447Z,986.16
2018-11-25T01:42:19.439Z,986.14
2018-11-25T01:43:19.437Z,986.06
2018-11-25T01:44:19.425Z,986.10
2018-11-25T01:45:19.404Z,986.02
2018-11-25T01:46:19.393Z,986.05
2018-11-25T01:47:19.382Z,986.04
2018-11-25T01:48:19.387Z,985.97
2018-11-25T01:49:19.360Z,986.02
2018-11-25T01:50:19.365Z,986.02
2018-11-25T01:51:19.341Z,986.00
2018-11-25T01:52:19.329Z,985.92
2018-11-25T01:53:19.336Z,985.89
2018-11-25T01:54:19.306Z,985.89
2018-11-25T01:55:19.300Z,985.87
2018-11-25T01:56:19.314Z,985.88
2018-11-25T01:57:19.275Z,985.86
2018-11-25T01:58:19.280Z,985.82
2018-11-25T01:59:19.255Z,985.77
2018-11-25T02:00:19.253Z,985.78
2018-11-25T02:01:19.234Z,985.70
2018-11-25T02:02:19.235Z,985.74
2018-11-25T02:03:19.227Z,985.68
2018-11-25T02:04:19.207Z,985.72
2018-11-25T02:05:19.192Z,985.69
2018-11-25T02:06:19.181Z,985.67
2018-11-25T02:07:19.174Z,985.59
2018-11-25T02:08:19.194Z,985.59
2018-11-25T02:09:19.152Z,985.56
2018-11-25T02:10:19.141Z,985.56
2018-11-25T02:11:19.133Z,985.53
2018-11-25T02:12:19.122Z,985.50
2018-11-25T02:13:19.122Z,985.50
2018-11-25T02:14:19.111Z,985.54
2018-11-25T02:15:19.088Z,985.48
2018-11-25T02:16:19.076Z,985.50
2018-11-25T02:17:19.067Z,985.46
2018-11-25T02:18:19.068Z,985.46
2018-11-25T02:19:19.047Z,985.41
2018-11-25T02:20:19.048Z,985.45
2018-11-25T02:21:19.025Z,985.40
2018-11-25T02:22:19.015Z,985.41
2018-11-25T02:23:19.018Z,985.42
2018-11-25T02:24:18.996Z,985.34
2018-11-25T02:25:18.985Z,985.37
2018-11-25T02:26:18.979Z,985.34
2018-11-25T02:27:18.964Z,985.36
2018-11-25T02:28:18.981Z,985.30
2018-11-25T02:29:18.943Z,985.29
2018-11-25T02:30:18.932Z,985.26
2018-11-25T02:31:18.923Z,985.29
2018-11-25T02:32:18.924Z,985.21
2018-11-25T02:33:18.903Z,985.20
2018-11-25T02:34:18.904Z,985.22
2018-11-25T02:35:18.882Z,985.20
2018-11-25T02:36:18.877Z,985.21
2018-11-25T02:37:18.860Z,985.21
2018-11-25T02:38:18.861Z,985.13
2018-11-25T02:39:18.857Z,985.14
2018-11-25T02:40:18.831Z,985.09
2018-11-25T02:41:18.821Z,985.10
2018-11-25T02:42:18.808Z,985.11
2018-11-25T02:43:18.797Z,985.15
2018-11-25T02:44:18.819Z,985.14
2018-11-25T02:45:18.778Z,985.14
2018-11-25T02:46:18.766Z,985.15
2018-11-25T02:47:18.758Z,985.07
2018-11-25T02:48:18.745Z,985.09
2018-11-25T02:49:18.751Z,985.05
2018-11-25T02:50:18.735Z,984.98
2018-11-25T02:51:18.713Z,984.95
2018-11-25T02:52:18.705Z,984.97
2018-11-25T02:53:18.693Z,985.00
2018-11-25T02:54:18.697Z,984.97
2018-11-25T02:55:18.673Z,984.95
2018-11-25T02:56:18.676Z,985.02
2018-11-25T02:57:18.652Z,985.01
2018-11-25T02:58:18.641Z,984.99
2018-11-25T02:59:18.644Z,985.01
2018-11-25T03:00:18.621Z,984.93
2018-11-25T03:01:18.610Z,984.93
2018-11-25T03:02:18.618Z,984.94
2018-11-25T03:03:18.588Z,984.99
2018-11-25T03:04:18.593Z,984.99
2018-11-25T03:05:18.574Z,984.97
2018-11-25T03:06:18.557Z,985.02
2018-11-25T03:07:18.547Z,985.05
2018-11-25T03:08:18.547Z,985.05
2018-11-25T03:09:18.547Z,985.02
2018-11-25T03:10:18.517Z,984.96
2018-11-25T03:11:18.508Z,984.99
2018-11-25T03:12:18.496Z,985.00
2018-11-25T03:13:18.486Z,984.94
2018-11-25T03:14:18.504Z,984.98
2018-11-25T03:15:18.469Z,984.94
2018-11-25T03:16:18.457Z,984.95
2018-11-25T03:17:18.443Z,985.02
2018-11-25T03:18:18.433Z,985.03
2018-11-25T03:19:18.438Z,985.04
2018-11-25T03:20:18.460Z,985.04
2018-11-25T03:21:18.402Z,985.09
2018-11-25T03:22:18.396Z,985.14
2018-11-25T03:23:18.382Z,985.17
2018-11-25T03:24:18.389Z,985.13
2018-11-25T03:25:18.369Z,985.20
2018-11-25T03:26:18.367Z,985.17
2018-11-25T03:27:18.340Z,985.13
2018-11-25T03:28:18.330Z,985.14
2018-11-25T03:29:18.335Z,985.13
2018-11-25T03:30:18.315Z,985.16
2018-11-25T03:31:18.299Z,985.17
2018-11-25T03:32:18.299Z,985.18
2018-11-25T03:33:18.276Z,985.15
2018-11-25T03:34:18.280Z,985.12
2018-11-25T03:35:18.265Z,985.17
2018-11-25T03:36:18.246Z,985.14
2018-11-25T03:37:18.236Z,985.12
2018-11-25T03:38:18.233Z,985.12
2018-11-25T03:39:18.232Z,985.10
2018-11-25T03:40:18.206Z,985.16
2018-11-25T03:41:18.195Z,985.13
2018-11-25T03:42:18.184Z,985.12
2018-11-25T03:43:18.176Z,985.09
2018-11-25T03:44:18.196Z,985.09
2018-11-25T03:45:18.154Z,985.02
2018-11-25T03:46:18.144Z,985.03
2018-11-25T03:47:18.138Z,985.05
2018-11-25T03:48:18.123Z,985.03
2018-11-25T03:49:18.124Z,985.05
2018-11-25T03:50:18.120Z,985.01
2018-11-25T03:51:18.093Z,985.04
2018-11-25T03:52:18.079Z,985.02
2018-11-25T03:53:18.070Z,985.02
2018-11-25T03:54:18.072Z,984.99
2018-11-25T03:55:18.051Z,985.01
2018-11-25T03:56:18.048Z,984.96
2018-11-25T03:57:18.029Z,984.95
2018-11-25T03:58:18.017Z,984.95
2018-11-25T03:59:18.020Z,984.95
2018-11-25T04:00:18.001Z,984.96
2018-11-25T04:01:17.987Z,984.92
2018-11-25T04:02:17.999Z,984.93
2018-11-25T04:03:17.966Z,985.07
2018-11-25T04:04:17.972Z,985.05
2018-11-25T04:05:17.952Z,985.06
2018-11-25T04:06:17.935Z,985.05
2018-11-25T04:07:17.930Z,985.07
2018-11-25T04:08:17.931Z,984.99
2018-11-25T04:09:17.918Z,985.01
2018-11-25T04:10:17.900Z,985.03
2018-11-25T04:11:17.884Z,984.98
2018-11-25T04:12:17.875Z,984.99
2018-11-25T04:13:17.866Z,984.92
2018-11-25T04:14:17.880Z,984.98
2018-11-25T04:15:17.845Z,984.90
2018-11-25T04:16:17.832Z,984.93
2018-11-25T04:17:17.823Z,984.89
2018-11-25T04:18:17.815Z,984.81
2018-11-25T04:19:17.815Z,984.79
2018-11-25T04:20:17.808Z,984.86
2018-11-25T04:21:17.788Z,984.88
2018-11-25T04:22:17.773Z,984.88
2018-11-25T04:23:17.760Z,984.86
2018-11-25T04:24:17.765Z,984.85
2018-11-25T04:25:17.742Z,984.88
2018-11-25T04:26:17.748Z,984.91
2018-11-25T04:27:17.719Z,984.94
2018-11-25T04:28:17.712Z,984.90
2018-11-25T04:29:17.712Z,984.90
2018-11-25T04:30:17.691Z,984.99
2018-11-25T04:31:17.682Z,984.95
2018-11-25T04:32:17.682Z,984.91
2018-11-25T04:33:17.657Z,984.87
2018-11-25T04:34:17.663Z,984.91
2018-11-25T04:35:17.636Z,984.89
2018-11-25T04:36:17.627Z,984.87
2018-11-25T04:37:17.617Z,984.88
2018-11-25T04:38:17.619Z,984.88
2018-11-25T04:39:17.609Z,984.86
2018-11-25T04:40:17.585Z,984.78
2018-11-25T04:41:17.575Z,984.80
2018-11-25T04:42:17.565Z,984.72
2018-11-25T04:43:17.554Z,984.72
2018-11-25T04:44:17.565Z,984.68
2018-11-25T04:45:17.537Z,984.65
2018-11-25T04:46:17.524Z,984.71
2018-11-25T04:47:17.513Z,984.66
2018-11-25T04:48:17.503Z,984.63
2018-11-25T04:49:17.507Z,984.64
2018-11-25T04:50:17.495Z,984.68
2018-11-25T04:51:17.470Z,984.64
2018-11-25T04:52:17.461Z,984.54
2018-11-25T04:53:17.452Z,984.59
2018-11-25T04:54:17.458Z,984.57
2018-11-25T04:55:17.429Z,984.54
2018-11-25T04:56:17.430Z,984.54
2018-11-25T04:57:17.408Z,984.61
2018-11-25T04:58:17.400Z,984.52
2018-11-25T04:59:17.405Z,984.48
2018-11-25T05:00:17.379Z,984.47
2018-11-25T05:01:17.371Z,984.43
2018-11-25T05:02:17.375Z,984.43
2018-11-25T05:03:17.349Z,984.38
2018-11-25T05:04:17.349Z,984.36
2018-11-25T05:05:17.329Z,984.36
2018-11-25T05:06:17.320Z,984.33
2018-11-25T05:07:17.308Z,984.36
2018-11-25T05:08:17.317Z,984.40
2018-11-25T05:09:17.303Z,984.36
2018-11-25T05:10:17.277Z,984.38
2018-11-25T05:11:17.263Z,984.32
2018-11-25T05:12:17.258Z,984.31
2018-11-25T05:13:17.244Z,984.27
2018-11-25T05:14:17.269Z,984.27
2018-11-25T05:15:17.223Z,984.29
2018-11-25T05:16:17.211Z,984.22
2018-11-25T05:17:17.204Z,984.25
2018-11-25T05:18:17.191Z,984.20
2018-11-25T05:19:17.194Z,984.21
2018-11-25T05:20:17.187Z,984.24
2018-11-25T05:21:17.159Z,984.24
2018-11-25T05:22:17.153Z,984.21
2018-11-25T05:23:17.139Z,984.20
2018-11-25T05:24:17.163Z,984.19
2018-11-25T05:25:17.122Z,984.15
2018-11-25T05:26:17.120Z,984.17
2018-11-25T05:27:17.098Z,984.13
2018-11-25T05:28:17.087Z,984.09
2018-11-25T05:29:17.076Z,984.09
2018-11-25T05:30:17.086Z,984.10
2018-11-25T05:31:17.058Z,984.09
2018-11-25T05:32:17.063Z,984.07
2018-11-25T05:33:17.037Z,984.09
2018-11-25T05:34:17.027Z,984.11
2018-11-25T05:35:17.026Z,984.12
2018-11-25T05:36:17.005Z,984.13
2018-11-25T05:37:16.993Z,984.13
2018-11-25T05:38:16.997Z,984.13
2018-11-25T05:39:16.979Z,984.12
2018-11-25T05:40:16.976Z,984.06
2018-11-25T05:41:16.951Z,984.05
2018-11-25T05:42:16.941Z,984.01
2018-11-25T05:43:16.932Z,983.99
2018-11-25T05:44:16.939Z,983.93
2018-11-25T05:45:16.925Z,983.92
2018-11-25T05:46:16.905Z,983.94
2018-11-25T05:47:16.889Z,983.94
2018-11-25T05:48:16.879Z,983.94
2018-11-25T05:49:16.868Z,983.93
2018-11-25T05:50:16.879Z,983.87
2018-11-25T05:51:16.856Z,983.80
2018-11-25T05:52:16.839Z,983.79
2018-11-25T05:53:16.828Z,983.82
2018-11-25T05:54:16.819Z,983.78
2018-11-25T05:55:16.825Z,983.83
2018-11-25T05:56:16.806Z,983.82
2018-11-25T05:57:16.787Z,983.79
2018-11-25T05:58:16.776Z,983.83
2018-11-25T05:59:16.767Z,983.80
2018-11-25T06:00:16.768Z,983.81
2018-11-25T06:01:16.744Z,983.85
2018-11-25T06:02:16.746Z,983.86
2018-11-25T06:03:16.725Z,983.84
2018-11-25T06:04:16.712Z,983.86
2018-11-25T06:05:16.717Z,983.79
2018-11-25T06:06:16.694Z,983.83
2018-11-25T06:07:16.684Z,983.88
2018-11-25T06:08:16.681Z,983.82
2018-11-25T06:09:16.666Z,983.84
2018-11-25T06:10:16.665Z,983.85
2018-11-25T06:11:16.642Z,983.83
2018-11-25T06:12:16.629Z,983.84
2018-11-25T06:13:16.621Z,983.85
2018-11-25T06:14:16.620Z,983.89
2018-11-25T06:15:16.613Z,983.90
2018-11-25T06:16:16.589Z,983.94
2018-11-25T06:17:16.577Z,983.90
2018-11-25T06:18:16.567Z,983.89
2018-11-25T06:19:16.559Z,983.94
2018-11-25T06:20:16.575Z,983.91
2018-11-25T06:21:16.538Z,983.91
2018-11-25T06:22:16.525Z,983.85
2018-11-25T06:23:16.514Z,983.85
2018-11-25T06:24:16.506Z,983.80
2018-11-25T06:25:16.508Z,983.80
2018-11-25T06:26:16.499Z,983.83
2018-11-25T06:27:16.476Z,983.80
2018-11-25T06:28:16.462Z,983.85
2018-11-25T06:29:16.453Z,983.79
2018-11-25T06:30:16.459Z,983.84
2018-11-25T06:31:16.433Z,983.80
2018-11-25T06:32:16.438Z,983.85
2018-11-25T06:33:16.414Z,983.76
2018-11-25T06:34:16.400Z,983.75
2018-11-25T06:35:16.405Z,983.71
2018-11-25T06:36:16.380Z,983.71
2018-11-25T06:37:16.370Z,983.68
2018-11-25T06:38:16.374Z,983.68
2018-11-25T06:39:16.349Z,983.64
2018-11-25T06:40:16.358Z,983.67
2018-11-25T06:41:16.334Z,983.67
2018-11-25T06:42:16.320Z,983.72
2018-11-25T06:43:16.309Z,983.71
2018-11-25T06:44:16.318Z,983.71
2018-11-25T06:45:16.301Z,983.64
2018-11-25T06:46:16.283Z,983.68
2018-11-25T06:47:16.266Z,983.63
2018-11-25T06:48:16.258Z,983.68
2018-11-25T06:49:16.246Z,983.71
2018-11-25T06:50:16.262Z,983.72
2018-11-25T06:51:16.232Z,983.80
2018-11-25T06:52:16.218Z,983.74
2018-11-25T06:53:16.206Z,983.70
2018-11-25T06:54:16.195Z,983.69
2018-11-25T06:55:16.198Z,983.69
2018-11-25T06:56:16.197Z,983.69
2018-11-25T06:57:16.164Z,983.77
2018-11-25T06:58:16.154Z,983.73
2018-11-25T06:59:16.143Z,983.76
2018-11-25T07:00:16.147Z,983.77
2018-11-25T07:01:16.123Z,983.81
2018-11-25T07:02:16.131Z,983.75
2018-11-25T07:03:16.108Z,983.78
2018-11-25T07:04:16.092Z,983.72
2018-11-25T07:05:16.095Z,983.72
2018-11-25T07:06:16.072Z,983.71
2018-11-25T07:07:16.063Z,983.71
2018-11-25T07:08:16.067Z,983.81
2018-11-25T07:09:16.041Z,983.83
2018-11-25T07:10:16.043Z,983.80
2018-11-25T07:11:16.020Z,983.81
2018-11-25T07:12:16.010Z,983.84
2018-11-25T07:13:16.004Z,983.81
2018-11-25T07:14:15.994Z,983.76
2018-11-25T07:15:15.994Z,983.77
2018-11-25T07:16:15.970Z,983.81
2018-11-25T07:17:15.958Z,983.80
2018-11-25T07:18:15.947Z,983.82
2018-11-25T07:19:15.939Z,983.80
2018-11-25T07:20:15.965Z,983.82
2018-11-25T07:21:15.917Z,983.81
2018-11-25T07:22:15.909Z,983.82
2018-11-25T07:23:15.897Z,983.79
2018-11-25T07:24:15.887Z,983.80
2018-11-25T07:25:15.889Z,983.79
2018-11-25T07:26:15.881Z,983.78
2018-11-25T07:27:15.859Z,983.74
2018-11-25T07:28:18.499Z,983.75
2018-11-25T07:29:15.841Z,983.80
2018-11-25T07:30:15.839Z,983.77
2018-11-25T07:31:15.815Z,983.78
2018-11-25T07:32:15.808Z,983.78
2018-11-25T07:33:15.793Z,983.77
2018-11-25T07:34:15.782Z,983.75
2018-11-25T07:35:15.790Z,983.82
2018-11-25T07:36:15.763Z,983.75
2018-11-25T07:37:15.753Z,983.69
2018-11-25T07:38:15.753Z,983.69
2018-11-25T07:39:15.732Z,983.67
2018-11-25T07:40:15.736Z,983.62
2018-11-25T07:41:15.712Z,983.57
2018-11-25T07:42:15.700Z,983.56
2018-11-25T07:43:15.693Z,983.52
2018-11-25T07:44:15.686Z,983.50
2018-11-25T07:45:15.684Z,983.53
2018-11-25T07:46:15.660Z,983.57
2018-11-25T07:47:15.650Z,983.49
2018-11-25T07:48:15.639Z,983.43
2018-11-25T07:49:15.627Z,983.45
2018-11-25T07:50:15.640Z,983.41
2018-11-25T07:51:15.607Z,983.44
2018-11-25T07:52:15.599Z,983.38
2018-11-25T07:53:15.587Z,983.36
2018-11-25T07:54:15.578Z,983.41
2018-11-25T07:55:15.599Z,983.49
2018-11-25T07:56:15.567Z,983.44
2018-11-25T07:57:15.546Z,983.37
2018-11-25T07:58:15.536Z,983.33
2018-11-25T07:59:15.525Z,983.26
2018-11-25T08:00:15.512Z,983.19
2018-11-25T08:01:15.516Z,983.16
2018-11-25T08:02:15.502Z,983.17
2018-11-25T08:03:15.482Z,983.10
2018-11-25T08:04:15.472Z,983.04
2018-11-25T08:05:15.462Z,982.93
2018-11-25T08:06:15.464Z,982.88
2018-11-25T08:07:15.444Z,982.87
2018-11-25T08:08:15.440Z,982.87
2018-11-25T08:09:15.420Z,982.93
2018-11-25T08:10:15.480Z,982.87
2018-11-25T08:11:15.413Z,982.89
2018-11-25T08:12:15.392Z,982.87
2018-11-25T08:13:15.381Z,982.86
2018-11-25T08:14:15.376Z,982.79
2018-11-25T08:15:15.359Z,982.75
2018-11-25T08:16:15.362Z,982.76
2018-11-25T08:17:15.336Z,982.79
2018-11-25T08:18:15.330Z,982.81
2018-11-25T08:19:15.316Z,982.75
2018-11-25T08:20:15.333Z,982.71
2018-11-25T08:21:15.309Z,982.68
2018-11-25T08:22:15.285Z,982.65
2018-11-25T08:23:15.685Z,982.67
2018-11-25T08:24:15.262Z,982.71
2018-11-25T08:25:15.253Z,982.59
2018-11-25T08:26:15.269Z,982.46
2018-11-25T08:27:15.269Z,982.59
2018-11-25T08:28:15.222Z,982.53
2018-11-25T08:29:15.209Z,982.49
2018-11-25T08:30:15.207Z,982.43
2018-11-25T08:31:15.202Z,982.47
2018-11-25T08:32:15.190Z,982.48
2018-11-25T08:33:15.172Z,982.43
2018-11-25T08:34:15.158Z,982.50
2018-11-25T08:35:15.148Z,982.60
2018-11-25T08:36:15.149Z,982.58
2018-11-25T08:37:15.126Z,982.61
2018-11-25T08:38:15.128Z,982.58
2018-11-25T08:39:15.108Z,982.61
2018-11-25T08:40:15.096Z,982.50
2018-11-25T08:41:15.100Z,982.45
2018-11-25T08:42:15.073Z,982.46
2018-11-25T08:43:15.065Z,982.50
2018-11-25T08:44:15.074Z,982.45
2018-11-25T08:45:15.042Z,982.44
2018-11-25T08:46:15.047Z,982.34
2018-11-25T08:47:15.022Z,982.43
2018-11-25T08:48:15.013Z,982.37
2018-11-25T08:49:15.002Z,982.41
2018-11-25T08:50:15.001Z,982.47
2018-11-25T08:51:14.993Z,982.23
2018-11-25T08:52:14.970Z,982.26
2018-11-25T08:53:14.960Z,982.30
2018-11-25T08:54:14.948Z,982.37
2018-11-25T08:55:14.936Z,982.47
2018-11-25T08:56:14.966Z,982.51
2018-11-25T08:57:14.918Z,982.46
2018-11-25T08:58:14.904Z,982.47
2018-11-25T08:59:14.893Z,982.42
2018-11-25T09:00:14.883Z,982.48
2018-11-25T09:01:14.888Z,982.41
2018-11-25T09:02:14.870Z,982.36
2018-11-25T09:03:14.851Z,982.37
2018-11-25T09:04:14.840Z,982.43
2018-11-25T09:05:14.832Z,982.29
2018-11-25T09:06:14.833Z,982.09
2018-11-25T09:07:14.809Z,982.16
2018-11-25T09:08:14.802Z,982.14
2018-11-25T09:09:14.787Z,982.11
2018-11-25T09:10:14.787Z,982.11
2018-11-25T09:11:14.788Z,982.14
2018-11-25T09:12:14.755Z,982.26
2018-11-25T09:13:14.744Z,982.19
2018-11-25T09:14:14.738Z,982.24
2018-11-25T09:15:14.725Z,982.31
2018-11-25T09:16:14.728Z,982.29
2018-11-25T09:17:14.704Z,982.27
2018-11-25T09:18:14.691Z,982.21
2018-11-25T09:19:14.680Z,982.21
2018-11-25T09:20:14.685Z,982.11
2018-11-25T09:21:14.677Z,982.11
2018-11-25T09:22:14.653Z,982.07
2018-11-25T09:23:14.641Z,982.06
2018-11-25T09:24:14.633Z,982.06
2018-11-25T09:25:14.619Z,982.08
2018-11-25T09:26:14.621Z,982.03
2018-11-25T09:27:14.608Z,982.12
2018-11-25T09:28:14.587Z,982.05
2018-11-25T09:29:14.575Z,982.00
2018-11-25T09:30:14.590Z,982.04
2018-11-25T09:31:14.566Z,982.01
2018-11-25T09:32:14.541Z,981.98
2018-11-25T09:33:14.542Z,981.99
2018-11-25T09:34:14.520Z,982.02
2018-11-25T09:35:14.510Z,982.02
2018-11-25T09:36:14.512Z,982.08
2018-11-25T09:37:14.491Z,982.01
2018-11-25T09:38:14.481Z,981.97
2018-11-25T09:39:14.478Z,982.00
2018-11-25T09:40:14.462Z,981.94
2018-11-25T09:41:14.461Z,981.92
2018-11-25T09:42:14.445Z,981.93
2018-11-25T09:43:14.425Z,981.93
2018-11-25T09:44:14.446Z,981.93
2018-11-25T09:45:14.415Z,981.86
2018-11-25T09:46:14.407Z,981.91
2018-11-25T09:47:14.382Z,981.84
2018-11-25T09:50:33.867Z,981.77
2018-11-25T09:51:33.860Z,981.72
2018-11-25T09:52:33.836Z,981.71
2018-11-25T09:53:33.826Z,981.72
2018-11-25T09:54:33.838Z,981.73
2018-11-25T09:55:33.941Z,981.77
2018-11-25T09:56:33.808Z,981.65
2018-11-25T09:57:33.787Z,981.76
2018-11-25T09:58:33.770Z,981.76
2018-11-25T09:59:33.760Z,981.71
2018-11-25T10:00:33.753Z,981.72
2018-11-25T10:01:33.749Z,981.70
2018-11-25T10:02:33.733Z,981.66
2018-11-25T10:03:33.715Z,981.70
2018-11-25T10:04:33.765Z,981.66
2018-11-25T10:05:33.700Z,981.64
2018-11-25T10:06:33.697Z,981.61
2018-11-25T10:07:33.673Z,981.61
2018-11-25T10:08:33.668Z,981.48
2018-11-25T10:09:33.654Z,981.54
2018-11-25T10:10:33.638Z,981.48
2018-11-25T10:11:33.642Z,981.48
2018-11-25T10:12:33.620Z,981.50
2018-11-25T10:13:33.609Z,981.50
2018-11-25T10:14:33.603Z,981.52
2018-11-25T10:15:33.585Z,981.46
2018-11-25T10:16:33.589Z,981.56
2018-11-25T10:17:33.563Z,981.53
2018-11-25T10:18:33.552Z,981.57
2018-11-25T10:19:33.540Z,981.51
2018-11-25T10:20:33.534Z,981.48
2018-11-25T10:21:33.535Z,981.51
2018-11-25T10:22:33.507Z,981.52
2018-11-25T10:23:33.496Z,981.50
2018-11-25T10:24:33.490Z,981.53
2018-11-25T10:25:33.487Z,981.53
2018-11-25T10:26:33.487Z,981.45
2018-11-25T10:27:33.457Z,981.43
2018-11-25T10:28:33.441Z,981.44
2018-11-25T10:29:33.433Z,981.43
2018-11-25T10:30:33.430Z,981.39
2018-11-25T10:31:33.422Z,981.42
2018-11-25T10:32:33.399Z,981.42
2018-11-25T10:33:33.392Z,981.41
2018-11-25T10:34:33.382Z,981.39
2018-11-25T10:35:33.366Z,981.44
2018-11-25T10:36:33.369Z,981.40
2018-11-25T10:37:33.343Z,981.42
2018-11-25T10:38:33.333Z,981.41
2018-11-25T10:39:33.323Z,981.39
2018-11-25T10:40:33.317Z,981.38
2018-11-25T10:41:33.315Z,981.37
2018-11-25T10:42:33.291Z,981.38
2018-11-25T10:43:33.279Z,981.38
2018-11-25T10:44:33.268Z,981.38
2018-11-25T10:45:33.257Z,981.36
2018-11-25T10:46:33.264Z,981.38
2018-11-25T10:47:33.234Z,981.37
2018-11-25T10:48:33.224Z,981.33
2018-11-25T10:49:33.213Z,981.39
2018-11-25T10:50:33.201Z,981.34
2018-11-25T10:51:33.203Z,981.31
2018-11-25T10:52:33.197Z,981.30
2018-11-25T10:53:33.170Z,981.30
2018-11-25T10:54:33.164Z,981.25
2018-11-25T10:55:33.145Z,981.29
2018-11-25T10:56:33.153Z,981.26
2018-11-25T10:57:33.124Z,981.31
2018-11-25T10:58:33.118Z,981.28
2018-11-25T10:59:33.102Z,981.29
2018-11-25T11:00:33.090Z,981.28
2018-11-25T11:01:33.094Z,981.27
2018-11-25T11:02:33.071Z,981.23
2018-11-25T11:03:33.056Z,981.19
2018-11-25T11:04:33.046Z,981.27
2018-11-25T11:05:33.041Z,981.28
2018-11-25T11:06:33.038Z,981.26
2018-11-25T11:07:33.013Z,981.21
2018-11-25T11:08:33.002Z,981.26
2018-11-25T11:09:32.991Z,981.24
2018-11-25T11:10:32.981Z,981.27
2018-11-25T11:11:32.989Z,981.17
2018-11-25T11:12:32.957Z,981.25
2018-11-25T11:13:32.946Z,981.26
2018-11-25T11:14:32.934Z,981.25
2018-11-25T11:15:32.924Z,981.15
2018-11-25T11:16:32.958Z,981.16
2018-11-25T11:17:32.910Z,981.10
2018-11-25T11:18:32.890Z,981.13
2018-11-25T11:19:32.879Z,981.08
2018-11-25T11:20:32.869Z,981.03
2018-11-25T11:21:32.856Z,981.03
2018-11-25T11:22:32.860Z,981.09
2018-11-25T11:23:32.837Z,981.07
2018-11-25T11:24:32.824Z,981.03
2018-11-25T11:25:32.844Z,981.00
2018-11-25T11:26:32.813Z,980.99
2018-11-25T11:27:32.803Z,981.01
2018-11-25T11:28:32.785Z,981.03
2018-11-25T11:29:32.768Z,981.03
2018-11-25T11:30:32.759Z,981.00
2018-11-25T11:31:32.757Z,980.94
2018-11-25T11:32:32.747Z,980.91
2018-11-25T11:33:32.728Z,980.96
2018-11-25T11:34:32.715Z,980.98
2018-11-25T11:35:32.705Z,980.96
2018-11-25T11:36:32.702Z,980.94
2018-11-25T11:37:32.697Z,980.91
2018-11-25T11:38:32.670Z,980.86
2018-11-25T11:39:32.659Z,980.85
2018-11-25T11:40:32.651Z,980.82
2018-11-25T11:41:32.639Z,980.87
2018-11-25T11:42:32.653Z,980.87
2018-11-25T11:43:32.617Z,980.81
2018-11-25T11:44:32.613Z,980.85
2018-11-25T11:45:32.599Z,980.86
2018-11-25T11:46:32.590Z,980.92
2018-11-25T11:47:32.586Z,980.87
2018-11-25T11:48:32.579Z,980.88
2018-11-25T11:49:32.552Z,980.93
2018-11-25T11:50:32.540Z,980.85
2018-11-25T11:51:32.530Z,980.87
2018-11-25T11:52:32.532Z,980.89
2018-11-25T11:53:32.509Z,980.92
2018-11-25T11:54:32.503Z,980.83
2018-11-25T11:55:32.489Z,980.86
2018-11-25T11:56:39.919Z,980.93
2018-11-25T11:57:33.479Z,980.85
2018-11-25T11:58:32.452Z,980.91
2018-11-25T11:59:32.443Z,980.88
2018-11-25T12:00:32.438Z,980.82
2018-11-25T12:01:32.421Z,980.75
2018-11-25T12:02:32.422Z,980.72
2018-11-25T12:03:32.399Z,980.79
2018-11-25T12:04:32.390Z,980.76
2018-11-25T12:05:32.377Z,980.73
2018-11-25T12:06:32.371Z,980.68
2018-11-25T12:07:32.366Z,980.66
2018-11-25T12:08:32.342Z,980.63
2018-11-25T12:09:32.331Z,980.61
2018-11-25T12:10:32.325Z,980.63
2018-11-25T12:11:32.311Z,980.64
2018-11-25T12:12:32.319Z,980.61
2018-11-25T12:13:32.288Z,980.61
2018-11-25T12:14:32.277Z,980.55
2018-11-25T12:15:32.272Z,980.49
2018-11-25T12:16:32.264Z,980.40
2018-11-25T12:17:32.258Z,980.45
2018-11-25T12:18:32.244Z,980.43
2018-11-25T12:19:32.225Z,980.43
2018-11-25T12:20:32.249Z,980.43
2018-11-25T12:21:32.201Z,980.45
2018-11-25T12:22:32.204Z,980.43
2018-11-25T12:23:32.186Z,980.42
2018-11-25T12:24:32.169Z,980.39
2018-11-25T12:25:32.162Z,980.45
2018-11-25T12:26:32.147Z,980.42
2018-11-25T12:27:32.148Z,980.39
2018-11-25T12:28:32.129Z,980.36
2018-11-25T12:29:32.112Z,980.44
2018-11-25T12:30:32.104Z,980.45